Time;durP1;ratioP1;P1;durP2;ratioP2;P2;SDS_P1;SDS_P2;PMS_P1;PMS_P2;Temp;Humidity;BMP_temperature;BMP_pressure;BME280_temperature;BME280_humidity;BME280_pressure;Samples;Min_cycle;Max_cycle;Signal;HPM_P1;HPM_P2
2024/03/24 00:00:19;;;;;;;3.17;1.60;;;;;;;7.12;43.59;100239.06;4930337;29;20354;-73
2024/03/24 00:02:45;;;;;;;3.58;1.60;;;;;;;7.11;43.80;100237.31;4923018;29;20056;-73
2024/03/24 00:05:13;;;;;;;4.20;1.80;;;;;;;7.13;43.89;100240.78;4926768;29;20538;-73
2024/03/24 00:07:39;;;;;;;3.75;1.90;;;;;;;7.11;43.66;100228.28;4909869;29;20044;-73
2024/03/24 00:10:08;;;;;;;4.43;1.85;;;;;;;7.13;43.96;100229.03;4922414;29;20054;-74
2024/03/24 00:12:34;;;;;;;3.40;1.70;;;;;;;7.12;44.18;100224.56;4911540;29;20047;-72
2024/03/24 00:15:01;;;;;;;4.28;1.80;;;;;;;7.12;43.85;100224.56;4922787;29;20569;-72
2024/03/24 00:17:28;;;;;;;3.13;1.92;;;;;;;7.10;43.56;100224.72;4902480;29;20046;-71
2024/03/24 00:19:55;;;;;;;4.13;1.80;;;;;;;7.10;43.83;100224.72;4927005;29;20057;-71
2024/03/24 00:22:22;;;;;;;3.65;2.10;;;;;;;7.11;43.76;100211.97;4917789;29;20039;-73
2024/03/24 00:24:49;;;;;;;3.00;1.90;;;;;;;7.08;43.58;100210.38;4924571;29;20039;-73
2024/03/24 00:27:15;;;;;;;3.28;2.03;;;;;;;7.09;44.00;100209.41;4916725;29;20035;-73
2024/03/24 00:29:42;;;;;;;3.33;1.98;;;;;;;7.09;43.94;100200.38;4930988;29;20074;-74
2024/03/24 00:32:08;;;;;;;3.22;2.15;;;;;;;7.08;43.73;100195.91;4912975;29;20090;-74
2024/03/24 00:34:35;;;;;;;3.80;2.10;;;;;;;7.07;44.05;100199.63;4927407;29;20161;-74
2024/03/24 00:37:01;;;;;;;4.97;2.22;;;;;;;7.07;43.96;100195.03;4919272;29;20036;-74
2024/03/24 00:39:30;;;;;;;4.28;2.22;;;;;;;7.07;43.67;100200.47;4911397;29;20046;-71
2024/03/24 00:41:56;;;;;;;3.08;2.05;;;;;;;7.05;43.89;100194.31;4914762;29;20058;-71
2024/03/24 00:44:23;;;;;;;4.68;2.22;;;;;;;7.05;44.24;100198.88;4927936;29;20039;-71
2024/03/24 00:46:51;;;;;;;3.88;2.20;;;;;;;7.04;44.17;100189.84;4924392;29;20040;-72
2024/03/24 00:49:18;;;;;;;3.88;2.25;;;;;;;7.05;44.17;100190.72;4916552;29;20043;-71
2024/03/24 00:51:44;;;;;;;4.63;2.35;;;;;;;7.03;44.33;100181.81;4921379;29;20412;-71
2024/03/24 00:54:10;;;;;;;4.97;2.45;;;;;;;7.04;44.42;100183.53;4915733;29;20032;-71
2024/03/24 00:56:38;;;;;;;3.60;2.20;;;;;;;7.05;44.24;100183.41;4933326;29;20436;-72
2024/03/24 00:59:05;;;;;;;4.00;2.35;;;;;;;7.04;44.10;100178.97;4920027;29;20099;-72
2024/03/24 01:01:32;;;;;;;4.35;2.55;;;;;;;7.04;44.08;100180.81;4928580;29;20048;-71
2024/03/24 01:03:58;;;;;;;5.32;2.47;;;;;;;7.04;44.02;100181.69;4923199;29;20036;-71
2024/03/24 01:06:24;;;;;;;4.07;2.53;;;;;;;7.05;44.13;100179.81;4931138;29;20284;-71
2024/03/24 01:08:51;;;;;;;5.80;2.53;;;;;;;7.05;44.39;100174.38;4914751;29;20035;-71
2024/03/24 01:11:17;;;;;;;4.32;2.33;;;;;;;7.05;44.51;100177.09;4920477;29;20050;-72
2024/03/24 01:13:45;;;;;;;4.15;2.30;;;;;;;7.04;44.59;100176.25;4928458;29;20035;-72
2024/03/24 01:16:12;;;;;;;5.63;2.60;;;;;;;7.03;44.17;100166.34;4928405;29;20066;-73
2024/03/24 01:18:39;;;;;;;3.83;2.50;;;;;;;7.03;44.17;100169.06;4927246;29;20047;-71
2024/03/24 01:21:07;;;;;;;4.85;2.35;;;;;;;7.03;44.52;100166.34;4923801;29;20348;-71
2024/03/24 01:23:33;;;;;;;4.30;2.53;;;;;;;7.02;44.10;100161.94;4931710;29;20043;-72
2024/03/24 01:26:00;;;;;;;5.43;2.63;;;;;;;7.02;44.04;100167.38;4911766;29;20439;-71
2024/03/24 01:28:27;;;;;;;5.57;2.58;;;;;;;7.01;43.98;100162.91;4913184;29;20116;-71
2024/03/24 01:30:55;;;;;;;4.18;2.33;;;;;;;7.00;44.13;100155.75;4929018;29;20051;-72
2024/03/24 01:33:21;;;;;;;3.70;1.98;;;;;;;6.99;44.15;100164.03;4910796;29;20596;-71
2024/03/24 01:35:48;;;;;;;4.72;2.40;;;;;;;6.97;44.00;100157.84;4922694;29;20044;-71
2024/03/24 01:38:15;;;;;;;4.55;2.38;;;;;;;6.96;43.94;100156.97;4925747;29;20043;-71
2024/03/24 01:40:49;;;;;;;3.35;2.17;;;;;;;6.96;44.28;100159.69;4924762;29;20403;-72
2024/03/24 01:43:15;;;;;;;3.42;2.30;;;;;;;6.92;43.81;100147.34;4931076;29;20047;-71
2024/03/24 01:45:42;;;;;;;3.58;2.25;;;;;;;6.91;43.75;100134.75;4931293;29;20054;-71
2024/03/24 01:48:09;;;;;;;4.07;2.25;;;;;;;6.93;44.04;100129.19;4929570;29;20047;-71
2024/03/24 01:50:36;;;;;;;3.17;2.10;;;;;;;6.92;43.92;100130.19;4928843;29;20158;-71
2024/03/24 01:53:03;;;;;;;3.90;2.42;;;;;;;6.88;43.86;100121.41;4932072;29;20039;-72
2024/03/24 01:55:30;;;;;;;4.20;2.50;;;;;;;6.88;44.27;100124.13;4929693;29;20098;-71
2024/03/24 01:57:56;;;;;;;3.92;2.13;;;;;;;6.87;43.78;100114.22;4913865;29;20130;-71
2024/03/24 02:00:23;;;;;;;3.78;2.33;;;;;;;6.85;44.13;100112.66;4931495;29;20473;-72
2024/03/24 02:02:50;;;;;;;3.80;2.50;;;;;;;6.84;43.78;100110.91;4906687;29;20043;-73
2024/03/24 02:05:25;;;;;;;4.25;2.67;;;;;;;6.85;44.52;100099.03;4925620;29;20354;-73
2024/03/24 02:07:51;;;;;;;6.50;2.42;;;;;;;6.80;43.96;100108.44;4925296;29;20070;-73
2024/03/24 02:10:18;;;;;;;5.63;2.63;;;;;;;6.80;43.85;100102.13;4918764;29;20516;-73
2024/03/24 02:12:45;;;;;;;5.07;2.45;;;;;;;6.80;44.11;100083.09;4931008;29;20036;-74
2024/03/24 02:15:12;;;;;;;3.72;2.60;;;;;;;6.79;44.09;100076.78;4916705;29;20412;-73
2024/03/24 02:17:38;;;;;;;5.72;2.97;;;;;;;6.78;44.19;100082.34;4913772;29;20043;-71
2024/03/24 02:20:07;;;;;;;3.92;2.55;;;;;;;6.79;44.11;100087.66;4921744;29;20040;-73
2024/03/24 02:22:36;;;;;;;4.40;2.40;;;;;;;6.80;44.56;100080.38;4919809;29;20047;-73
2024/03/24 02:25:03;;;;;;;4.95;2.85;;;;;;;6.79;44.28;100076.78;4935971;29;20507;-73
2024/03/24 02:27:29;;;;;;;4.65;2.50;;;;;;;6.80;44.11;100069.50;4926250;29;20040;-73
2024/03/24 02:29:55;;;;;;;5.13;2.88;;;;;;;6.80;44.49;100072.22;4929211;29;20075;-73
2024/03/24 02:32:22;;;;;;;3.88;2.47;;;;;;;6.80;44.38;100058.63;4927877;29;20455;-74
2024/03/24 02:34:49;;;;;;;5.30;2.72;;;;;;;6.80;44.18;100055.91;4948116;29;20051;-74
2024/03/24 02:37:14;;;;;;;4.45;2.83;;;;;;;6.79;44.37;100055.03;4927355;29;20443;-73
2024/03/24 02:39:44;;;;;;;5.38;2.92;;;;;;;6.81;44.50;100063.94;4929518;29;20642;-73
2024/03/24 02:42:09;;;;;;;4.15;2.80;;;;;;;6.80;44.49;100058.63;4934731;29;20097;-73
2024/03/24 02:44:37;;;;;;;3.95;2.72;;;;;;;6.80;44.55;100051.31;4913523;29;20048;-74
2024/03/24 02:47:03;;;;;;;5.93;3.15;;;;;;;6.80;44.21;100047.75;4929063;29;20396;-73
2024/03/24 02:49:31;;;;;;;5.25;2.70;;;;;;;6.80;44.05;100043.16;4932655;29;20039;-74
2024/03/24 02:51:57;;;;;;;5.15;2.90;;;;;;;6.78;44.46;100039.72;4927958;29;20047;-74
2024/03/24 02:54:24;;;;;;;4.40;2.78;;;;;;;6.79;44.26;100037.84;4935039;29;20149;-71
2024/03/24 02:56:51;;;;;;;5.05;2.72;;;;;;;6.79;44.25;100040.56;4926041;29;20102;-74
2024/03/24 02:59:18;;;;;;;4.85;2.97;;;;;;;6.75;44.49;100023.66;4928499;29;20035;-72
2024/03/24 03:01:44;;;;;;;4.38;2.53;;;;;;;6.77;44.23;100026.25;4922511;29;20051;-71
2024/03/24 03:04:13;;;;;;;4.82;2.70;;;;;;;6.75;44.47;100018.22;4927555;29;20458;-72
2024/03/24 03:06:40;;;;;;;5.13;2.50;;;;;;;6.74;44.08;100023.75;4933958;29;20082;-74
2024/03/24 03:09:08;;;;;;;5.32;2.67;;;;;;;6.71;44.47;100018.56;4916008;29;20051;-71
2024/03/24 03:11:36;;;;;;;5.03;2.65;;;;;;;6.70;44.68;100011.41;4932003;29;20118;-72
2024/03/24 03:14:04;;;;;;;4.22;2.45;;;;;;;6.71;44.36;100011.28;4932476;29;20066;-72
2024/03/24 03:16:30;;;;;;;4.50;2.72;;;;;;;6.67;44.53;100009.84;4916161;29;20150;-74
2024/03/24 03:18:57;;;;;;;4.22;2.40;;;;;;;6.65;44.66;99997.34;4915976;29;20058;-72
2024/03/24 03:21:25;;;;;;;4.55;2.50;;;;;;;6.65;44.50;100000.94;4929791;29;20094;-75
2024/03/24 03:23:53;;;;;;;5.43;2.67;;;;;;;6.63;44.74;99997.47;4916602;29;20047;-74
2024/03/24 03:26:20;;;;;;;4.13;2.47;;;;;;;6.62;44.41;100003.91;4917553;29;20047;-72
2024/03/24 03:28:47;;;;;;;3.60;2.20;;;;;;;6.61;44.64;100004.88;4917537;29;20051;-72
2024/03/24 03:31:14;;;;;;;3.85;2.40;;;;;;;6.60;44.83;99991.44;4926068;29;20054;-72
2024/03/24 03:33:42;;;;;;;3.50;2.28;;;;;;;6.57;44.59;100003.44;4914969;29;20051;-72
2024/03/24 03:36:08;;;;;;;4.18;2.00;;;;;;;6.56;44.78;99999.00;4928927;29;20051;-72
2024/03/24 03:38:35;;;;;;;4.50;2.25;;;;;;;6.55;44.77;99993.69;4929253;29;20043;-72
2024/03/24 03:41:02;;;;;;;3.40;2.00;;;;;;;6.53;44.81;99996.53;4914567;29;20047;-72
2024/03/24 03:43:28;;;;;;;3.55;2.10;;;;;;;6.52;44.69;99993.97;4912384;29;20090;-72
2024/03/24 03:45:54;;;;;;;3.08;1.67;;;;;;;6.50;44.60;99991.34;4933008;29;20047;-72
2024/03/24 03:48:23;;;;;;;3.97;1.92;;;;;;;6.50;45.16;99979.63;4912678;29;20058;-72
2024/03/24 03:50:49;;;;;;;3.30;1.70;;;;;;;6.48;44.88;99970.72;4931598;29;20043;-72
2024/03/24 03:53:22;;;;;;;3.92;1.80;;;;;;;6.48;45.05;99987.03;4933350;29;20039;-72
2024/03/24 03:55:50;;;;;;;3.13;1.95;;;;;;;6.46;44.98;99981.72;4931088;29;20055;-72
2024/03/24 03:58:19;;;;;;;3.40;1.80;;;;;;;6.45;44.97;99975.41;4921260;29;20087;-72
2024/03/24 04:00:45;;;;;;;3.13;1.77;;;;;;;6.44;45.00;99972.88;4932629;29;20403;-72
2024/03/24 04:03:13;;;;;;;3.20;1.98;;;;;;;6.45;44.92;99980.00;4909095;29;20051;-72
2024/03/24 04:05:41;;;;;;;3.22;1.83;;;;;;;6.45;45.10;99972.72;4919099;29;20039;-72
2024/03/24 04:08:09;;;;;;;3.13;1.98;;;;;;;6.45;45.20;99960.97;4921978;29;20035;-72
2024/03/24 04:10:36;;;;;;;2.72;1.80;;;;;;;6.44;45.11;99967.44;4931548;29;20043;-72
2024/03/24 04:13:03;;;;;;;5.28;2.35;;;;;;;6.45;44.84;99958.25;4925606;29;20039;-72
2024/03/24 04:15:30;;;;;;;3.70;1.95;;;;;;;6.43;45.13;99962.97;4922923;29;20044;-72
2024/03/24 04:17:56;;;;;;;3.28;2.05;;;;;;;6.42;45.28;99959.41;4916576;29;20055;-72
2024/03/24 04:20:23;;;;;;;4.22;1.95;;;;;;;6.44;45.08;99964.72;4920335;29;20048;-72
2024/03/24 04:22:52;;;;;;;4.03;2.25;;;;;;;6.43;45.28;99966.56;4911982;29;20039;-72
2024/03/24 04:25:18;;;;;;;3.78;2.20;;;;;;;6.42;45.13;99963.97;4933522;29;20039;-72
2024/03/24 04:27:45;;;;;;;4.28;1.88;;;;;;;6.41;45.24;99959.53;4918098;29;20040;-72
2024/03/24 04:30:12;;;;;;;3.88;2.10;;;;;;;6.42;45.36;99956.69;4921775;29;20202;-72
2024/03/24 04:32:39;;;;;;;2.90;2.00;;;;;;;6.41;45.38;99954.94;4924747;29;20040;-72
2024/03/24 04:35:08;;;;;;;3.90;1.85;;;;;;;6.41;45.57;99963.09;4918159;29;20703;-72
2024/03/24 04:37:35;;;;;;;3.97;2.00;;;;;;;6.42;45.41;99969.41;4922144;29;20036;-72
2024/03/24 04:40:05;;;;;;;3.97;1.95;;;;;;;6.42;45.58;99956.69;4919909;29;20054;-73
2024/03/24 04:42:32;;;;;;;3.20;2.10;;;;;;;6.41;45.60;99954.94;4924296;29;20071;-73
2024/03/24 04:45:00;;;;;;;4.47;2.00;;;;;;;6.41;45.79;99957.66;4924087;29;20035;-73
2024/03/24 04:47:29;;;;;;;3.70;2.13;;;;;;;6.42;45.26;99964.84;4925912;29;20040;-73
2024/03/24 04:49:55;;;;;;;3.90;2.20;;;;;;;6.41;45.56;99946.78;4930871;29;20098;-72
2024/03/24 04:52:23;;;;;;;4.57;2.10;;;;;;;6.41;45.31;99957.66;4932878;29;20051;-72
2024/03/24 04:54:49;;;;;;;4.38;2.20;;;;;;;6.41;45.60;99948.66;4931753;28;20043;-73
2024/03/24 04:57:17;;;;;;;4.63;2.40;;;;;;;6.41;45.60;99954.94;4931444;29;20082;-73
2024/03/24 04:59:43;;;;;;;3.47;2.08;;;;;;;6.41;45.66;99945.94;4928868;29;20043;-73
2024/03/24 05:02:10;;;;;;;3.97;2.10;;;;;;;6.40;45.65;99949.63;4921361;29;20044;-73
2024/03/24 05:04:36;;;;;;;4.22;2.00;;;;;;;6.40;45.57;99946.91;4930551;29;20046;-73
2024/03/24 05:07:03;;;;;;;3.83;1.90;;;;;;;6.37;45.47;99942.59;4916816;29;20043;-73
2024/03/24 05:09:29;;;;;;;3.15;1.73;;;;;;;6.35;45.49;99944.59;4908494;29;20046;-73
2024/03/24 05:11:56;;;;;;;4.32;1.90;;;;;;;6.37;45.40;99939.00;4925135;29;20430;-73
2024/03/24 05:14:23;;;;;;;4.05;2.00;;;;;;;6.37;45.80;99939.00;4925579;29;20095;-72
2024/03/24 05:16:51;;;;;;;3.55;1.70;;;;;;;6.34;45.67;99940.16;4928714;29;20066;-72
2024/03/24 05:19:17;;;;;;;5.55;2.15;;;;;;;6.36;45.74;99940.91;4915861;29;20413;-72
2024/03/24 05:21:46;;;;;;;4.63;2.22;;;;;;;6.35;45.71;99935.59;4916988;29;20051;-71
2024/03/24 05:24:12;;;;;;;3.17;2.15;;;;;;;6.34;45.61;99926.56;4922810;29;20287;-73
2024/03/24 05:26:38;;;;;;;3.05;1.75;;;;;;;6.35;45.85;99946.47;4912675;29;20411;-72
2024/03/24 05:29:05;;;;;;;4.32;2.03;;;;;;;6.34;45.61;99942.88;4924032;29;20450;-72
2024/03/24 05:31:34;;;;;;;4.07;1.90;;;;;;;6.35;46.06;99949.16;4919163;29;20039;-72
2024/03/24 05:34:00;;;;;;;4.85;1.90;;;;;;;6.33;46.07;99949.28;4913692;29;20036;-72
2024/03/24 05:36:28;;;;;;;4.25;1.95;;;;;;;6.32;45.86;99950.28;4912756;29;20047;-72
2024/03/24 05:38:54;;;;;;;5.80;2.50;;;;;;;6.32;45.89;99939.41;4909579;29;20542;-72
2024/03/24 05:41:20;;;;;;;4.32;2.17;;;;;;;6.32;45.98;99938.56;4925027;29;20051;-72
2024/03/24 05:43:46;;;;;;;3.85;2.22;;;;;;;6.32;46.34;99938.56;4906094;29;20052;-72
2024/03/24 05:46:13;;;;;;;4.53;2.20;;;;;;;6.33;46.33;99945.72;4923931;29;20036;-73
2024/03/24 05:48:40;;;;;;;4.00;2.03;;;;;;;6.34;46.44;99944.72;4915882;29;20399;-72
2024/03/24 05:51:07;;;;;;;4.55;2.00;;;;;;;6.32;46.38;99944.84;4926129;29;20086;-72
2024/03/24 05:53:33;;;;;;;5.88;2.35;;;;;;;6.33;46.35;99948.44;4929618;29;20043;-72
2024/03/24 05:56:01;;;;;;;5.00;2.40;;;;;;;6.33;46.61;99946.59;4931573;29;20154;-72
2024/03/24 05:58:28;;;;;;;4.35;2.78;;;;;;;6.35;46.57;99943.75;4926132;29;20047;-72
2024/03/24 06:00:56;;;;;;;4.47;2.40;;;;;;;6.34;46.42;99951.03;4913980;29;20127;-72
2024/03/24 06:03:22;;;;;;;5.20;2.20;;;;;;;6.35;46.24;99941.88;4910545;29;20058;-73
2024/03/24 06:05:50;;;;;;;7.43;2.70;;;;;;;6.39;46.82;99945.19;4926087;29;20127;-72
2024/03/24 06:08:17;;;;;;;4.85;2.22;;;;;;;6.38;46.38;99951.63;4916713;29;20043;-72
2024/03/24 06:10:44;;;;;;;5.18;2.30;;;;;;;6.37;46.77;99947.16;4929756;29;20518;-72
2024/03/24 06:13:11;;;;;;;5.22;2.50;;;;;;;6.40;46.90;99944.19;4923266;29;20127;-72
2024/03/24 06:15:39;;;;;;;5.47;2.80;;;;;;;6.39;46.47;99940.63;4921090;29;20040;-71
2024/03/24 06:18:06;;;;;;;6.20;2.65;;;;;;;6.40;46.70;99936.91;4925202;29;20035;-72
2024/03/24 06:20:33;;;;;;;7.20;2.83;;;;;;;6.42;46.64;99936.78;4923446;29;20279;-72
2024/03/24 06:23:01;;;;;;;5.60;2.35;;;;;;;6.44;46.71;99932.94;4927111;29;20186;-72
2024/03/24 06:25:28;;;;;;;4.97;2.58;;;;;;;6.42;46.84;99937.66;4904525;29;20038;-72
2024/03/24 06:27:55;;;;;;;7.30;2.45;;;;;;;6.43;46.62;99936.66;4927009;29;20070;-72
2024/03/24 06:30:22;;;;;;;4.88;3.05;;;;;;;6.43;46.70;99936.66;4909545;29;20043;-72
2024/03/24 06:32:48;;;;;;;5.70;2.42;;;;;;;6.45;47.07;99950.09;4923545;29;20135;-72
2024/03/24 06:35:15;;;;;;;4.95;2.75;;;;;;;6.46;46.83;99954.53;4912303;29;20059;-72
2024/03/24 06:37:41;;;;;;;4.85;2.40;;;;;;;6.47;46.97;99959.00;4930080;29;20091;-72
2024/03/24 06:40:11;;;;;;;5.47;2.30;;;;;;;6.49;47.15;99945.28;4923314;29;20172;-72
2024/03/24 06:42:43;;;;;;;4.50;2.28;;;;;;;6.49;47.15;99942.56;4930241;29;20043;-72
2024/03/24 06:45:10;;;;;;;4.30;2.20;;;;;;;6.49;46.93;99962.44;4925680;29;20060;-72
2024/03/24 06:47:37;;;;;;;4.68;2.17;;;;;;;6.51;47.02;99956.88;4917432;29;20291;-72
2024/03/24 06:50:05;;;;;;;4.65;2.00;;;;;;;6.53;46.77;99958.47;4915923;29;20094;-72
2024/03/24 06:52:31;;;;;;;5.25;2.20;;;;;;;6.53;46.92;99958.47;4927772;29;20043;-71
2024/03/24 06:54:57;;;;;;;6.13;2.50;;;;;;;6.53;46.95;99958.47;4928443;29;20066;-72
2024/03/24 06:57:25;;;;;;;4.60;2.30;;;;;;;6.55;47.01;99970.06;4950711;29;20040;-72
2024/03/24 06:59:52;;;;;;;4.40;2.00;;;;;;;6.54;47.02;99965.63;4925329;29;20526;-72
2024/03/24 07:02:18;;;;;;;6.53;2.13;;;;;;;6.55;46.72;99953.75;4918931;29;20044;-72
2024/03/24 07:04:45;;;;;;;6.15;2.35;;;;;;;6.57;46.67;99961.78;4930574;29;20542;-72
2024/03/24 07:07:11;;;;;;;5.00;2.35;;;;;;;6.57;47.19;99959.06;4918333;29;20519;-72
2024/03/24 07:09:38;;;;;;;5.20;2.20;;;;;;;6.58;46.89;99958.94;4933486;29;20154;-72
2024/03/24 07:12:05;;;;;;;4.60;2.35;;;;;;;6.59;46.76;99960.69;4903801;29;20039;-72
2024/03/24 07:14:33;;;;;;;3.65;1.80;;;;;;;6.60;46.67;99983.28;4923313;29;20055;-72
2024/03/24 07:16:59;;;;;;;4.13;1.85;;;;;;;6.59;46.63;99968.84;4917343;29;20365;-72
2024/03/24 07:19:26;;;;;;;5.55;2.03;;;;;;;6.59;46.87;99977.00;4931304;29;20106;-72
2024/03/24 07:21:51;;;;;;;4.63;1.83;;;;;;;6.59;46.58;99971.56;4932764;29;20055;-72
2024/03/24 07:24:18;;;;;;;6.22;2.75;;;;;;;6.58;46.71;99977.97;4908387;29;20047;-72
2024/03/24 07:26:44;;;;;;;4.82;1.75;;;;;;;6.59;46.67;99978.84;4927079;29;20113;-72
2024/03/24 07:29:11;;;;;;;4.60;2.15;;;;;;;6.59;46.51;100000.59;4925188;29;20059;-71
2024/03/24 07:31:38;;;;;;;3.75;1.70;;;;;;;6.59;46.76;100000.59;4918905;29;20427;-72
2024/03/24 07:34:05;;;;;;;6.10;1.77;;;;;;;6.58;46.53;100005.16;4918405;29;20054;-72
2024/03/24 07:36:31;;;;;;;4.43;1.70;;;;;;;6.57;46.49;100006.16;4930014;29;20047;-72
2024/03/24 07:38:58;;;;;;;3.97;1.65;;;;;;;6.57;46.68;100003.44;4909306;29;20039;-73
2024/03/24 07:41:24;;;;;;;3.50;1.80;;;;;;;6.57;46.69;100016.16;4923529;29;20488;-72
2024/03/24 07:43:51;;;;;;;4.15;1.88;;;;;;;6.56;46.69;100017.16;4927028;29;20051;-72
2024/03/24 07:46:17;;;;;;;3.25;1.60;;;;;;;6.55;46.50;100015.44;4916870;29;20047;-73
2024/03/24 07:48:45;;;;;;;4.97;1.70;;;;;;;6.55;46.66;100018.13;4906777;29;20059;-73
2024/03/24 07:51:11;;;;;;;4.55;2.05;;;;;;;6.51;46.95;100014.84;4929672;29;20333;-73
2024/03/24 07:53:38;;;;;;;4.95;1.80;;;;;;;6.51;46.87;100017.56;4925341;29;20052;-72
2024/03/24 07:58:39;;;;;;;3.72;1.80;;;;;;;6.51;46.87;100013.97;4955981;28;20043;-72
2024/03/24 08:01:05;;;;;;;4.45;2.10;;;;;;;6.51;47.14;100027.56;4933497;28;20051;-72
2024/03/24 08:03:32;;;;;;;3.65;1.85;;;;;;;6.50;46.73;100043.00;4935114;29;20047;-73
2024/03/24 08:05:59;;;;;;;4.13;1.80;;;;;;;6.49;47.05;100024.97;4935848;29;20044;-73
2024/03/24 08:08:26;;;;;;;2.80;1.67;;;;;;;6.48;47.02;100022.38;4938793;29;20053;-73
2024/03/24 08:10:53;;;;;;;4.57;1.90;;;;;;;6.48;47.21;100035.97;4923407;29;20071;-74
2024/03/24 08:13:20;;;;;;;3.53;1.85;;;;;;;6.49;47.37;100021.38;4924450;29;20051;-72
2024/03/24 08:15:46;;;;;;;4.53;1.98;;;;;;;6.49;47.36;100022.25;4939850;29;20102;-73
2024/03/24 08:18:14;;;;;;;5.53;2.17;;;;;;;6.49;47.33;100024.97;4933978;29;20463;-72
2024/03/24 08:20:44;;;;;;;5.03;1.80;;;;;;;6.51;47.28;100028.44;4943930;28;20070;-73
2024/03/24 08:23:12;;;;;;;5.57;2.00;;;;;;;6.49;47.39;100024.97;4916095;29;20090;-73
2024/03/24 08:25:38;;;;;;;3.47;1.90;;;;;;;6.49;47.20;100019.53;4932186;29;20044;-73
2024/03/24 08:28:05;;;;;;;5.30;2.03;;;;;;;6.49;47.54;100033.13;4919148;29;20039;-71
2024/03/24 08:30:31;;;;;;;3.92;2.10;;;;;;;6.50;47.74;100031.28;4927491;29;20051;-73
2024/03/24 08:32:58;;;;;;;6.25;2.30;;;;;;;6.48;47.59;100036.81;4914487;29;20094;-72
2024/03/24 08:35:24;;;;;;;3.60;2.00;;;;;;;6.49;47.45;100035.84;4922445;29;20051;-72
2024/03/24 08:37:51;;;;;;;4.03;2.10;;;;;;;6.48;47.49;100035.97;4928399;29;20105;-72
2024/03/24 08:40:19;;;;;;;4.82;2.15;;;;;;;6.49;47.70;100027.69;4931074;29;20126;-72
2024/03/24 08:42:46;;;;;;;3.60;1.90;;;;;;;6.48;47.54;100036.81;4933682;29;20047;-71
2024/03/24 08:45:12;;;;;;;3.33;1.83;;;;;;;6.49;47.92;100021.38;4933761;29;20526;-72
2024/03/24 08:47:39;;;;;;;3.85;1.70;;;;;;;6.51;48.22;100038.44;4932784;29;20114;-72
2024/03/24 08:50:05;;;;;;;4.88;1.83;;;;;;;6.52;48.26;100029.28;4917112;29;20046;-71
2024/03/24 08:52:32;;;;;;;4.30;1.95;;;;;;;6.55;48.39;100031.72;4916800;29;20050;-71
2024/03/24 08:54:59;;;;;;;4.40;2.08;;;;;;;6.58;48.50;100023.34;4932876;29;20043;-72
2024/03/24 08:57:27;;;;;;;4.13;1.92;;;;;;;6.61;48.55;100023.91;4927627;29;20047;-72
2024/03/24 08:59:55;;;;;;;4.55;1.95;;;;;;;6.64;48.49;100020.09;4917017;29;20043;-72
2024/03/24 09:02:24;;;;;;;4.60;2.10;;;;;;;6.66;48.47;100031.72;4933495;29;20519;-71
2024/03/24 09:04:53;;;;;;;6.32;2.33;;;;;;;6.71;48.52;100032.16;4925452;29;20392;-72
2024/03/24 09:07:20;;;;;;;4.55;2.22;;;;;;;6.73;48.21;100030.19;4930873;29;20467;-72
2024/03/24 09:09:47;;;;;;;5.00;2.38;;;;;;;6.75;48.35;100031.81;4933021;29;20403;-72
2024/03/24 09:12:13;;;;;;;4.97;2.38;;;;;;;6.78;48.32;100022.53;4917524;29;20078;-71
2024/03/24 09:14:42;;;;;;;5.13;2.30;;;;;;;6.82;48.62;100029.44;4938470;29;20043;-71
2024/03/24 09:17:10;;;;;;;5.65;2.40;;;;;;;6.84;48.60;100021.16;4941645;29;20050;-72
2024/03/24 09:19:36;;;;;;;6.82;2.55;;;;;;;6.88;48.52;100025.31;4933133;29;20058;-72
2024/03/24 09:22:05;;;;;;;5.05;2.60;;;;;;;6.91;48.63;100017.78;4925658;29;20035;-71
2024/03/24 09:24:31;;;;;;;5.43;2.85;;;;;;;6.98;48.81;100029.00;4927378;29;20090;-72
2024/03/24 09:26:59;;;;;;;4.40;2.63;;;;;;;7.04;48.79;100015.72;4912061;29;20059;-72
2024/03/24 09:29:26;;;;;;;5.65;2.78;;;;;;;7.09;48.80;100016.22;4930836;29;20511;-72
2024/03/24 09:31:55;;;;;;;5.25;2.55;;;;;;;7.17;48.50;100026.44;4916726;28;20043;-72
2024/03/24 09:34:22;;;;;;;6.47;3.30;;;;;;;7.22;48.27;100026.00;4916103;29;20043;-73
2024/03/24 09:36:49;;;;;;;4.40;2.53;;;;;;;7.26;48.72;100012.03;4915488;29;20039;-72
2024/03/24 09:39:15;;;;;;;4.88;2.50;;;;;;;7.32;48.33;100027.81;4916128;29;20499;-72
2024/03/24 09:41:43;;;;;;;7.05;3.03;;;;;;;7.38;48.52;100016.38;4928198;29;20050;-74
2024/03/24 09:44:10;;;;;;;6.28;2.60;;;;;;;7.43;48.68;100025.03;4920726;29;20044;-74
2024/03/24 09:46:39;;;;;;;4.43;2.50;;;;;;;7.48;48.65;100017.31;4911275;29;20043;-74
2024/03/24 09:49:11;;;;;;;5.25;2.30;;;;;;;7.57;48.30;100012.91;4933680;29;20564;-74
2024/03/24 09:51:39;;;;;;;5.15;2.58;;;;;;;7.63;48.33;100012.34;4921698;28;20487;-73
2024/03/24 09:54:08;;;;;;;4.65;2.22;;;;;;;7.69;48.43;100016.38;4933810;29;20117;-74
2024/03/24 09:56:36;;;;;;;7.47;2.78;;;;;;;7.75;47.90;100004.97;4932078;28;20039;-73
2024/03/24 09:59:03;;;;;;;5.47;2.30;;;;;;;7.81;47.79;100034.38;4930859;29;20070;-72
2024/03/24 10:01:31;;;;;;;5.22;2.55;;;;;;;7.85;47.58;100016.72;4912616;29;20035;-72
2024/03/24 10:03:57;;;;;;;4.53;2.35;;;;;;;7.89;47.93;100010.88;4931793;29;20047;-69
2024/03/24 10:06:26;;;;;;;4.57;2.50;;;;;;;7.96;47.65;100016.63;4918784;29;20043;-72
2024/03/24 10:08:52;;;;;;;6.22;2.53;;;;;;;8.02;47.79;100001.59;4918181;29;20118;-72
2024/03/24 10:11:27;;;;;;;4.18;2.45;;;;;;;8.10;47.04;100004.47;4930407;29;20039;-73
2024/03/24 10:13:53;;;;;;;4.72;2.58;;;;;;;8.14;47.52;100000.53;4932153;29;20203;-73
2024/03/24 10:16:20;;;;;;;6.18;2.47;;;;;;;8.21;47.50;99998.97;4933725;29;20055;-72
2024/03/24 10:18:46;;;;;;;4.40;2.47;;;;;;;8.29;47.45;99997.25;4934037;28;20031;-72
2024/03/24 10:21:13;;;;;;;5.90;2.50;;;;;;;8.38;47.54;99998.28;4919271;29;20039;-72
2024/03/24 10:23:41;;;;;;;7.18;2.45;;;;;;;8.47;47.07;99999.28;4930796;29;20086;-72
2024/03/24 10:26:08;;;;;;;5.43;2.70;;;;;;;8.52;47.18;100003.31;4924191;29;20088;-72
2024/03/24 10:28:34;;;;;;;7.15;2.70;;;;;;;8.58;46.54;100004.63;4921147;29;20040;-73
2024/03/24 10:31:05;;;;;;;6.47;3.08;;;;;;;8.63;45.93;100005.91;4943920;29;20035;-73
2024/03/24 10:33:32;;;;;;;5.10;2.28;;;;;;;8.66;46.24;100004.78;4938438;29;20295;-73
2024/03/24 10:35:59;;;;;;;5.00;2.22;;;;;;;8.69;46.45;100018.09;4921235;29;20039;-73
2024/03/24 10:38:27;;;;;;;8.00;2.65;;;;;;;8.73;46.04;100015.97;4937315;29;20036;-72
2024/03/24 10:40:58;;;;;;;4.80;2.35;;;;;;;8.78;45.93;100019.13;4920878;29;20059;-72
2024/03/24 10:43:25;;;;;;;4.88;2.80;;;;;;;8.76;46.15;100000.16;4931398;29;20094;-72
2024/03/24 10:45:53;;;;;;;6.93;3.05;;;;;;;8.80;45.84;100001.63;4928080;29;20040;-72
2024/03/24 10:48:25;;;;;;;5.57;2.72;;;;;;;8.85;45.76;99990.25;4937127;29;20035;-72
2024/03/24 10:50:54;;;;;;;6.50;2.80;;;;;;;8.86;45.52;100000.16;4934212;29;20055;-72
2024/03/24 10:53:24;;;;;;;6.30;2.50;;;;;;;8.90;45.85;99991.56;4936518;29;20717;-72
2024/03/24 10:55:52;;;;;;;4.13;2.33;;;;;;;8.93;45.45;99984.94;4920347;29;20413;-72
2024/03/24 10:58:21;;;;;;;6.97;2.45;;;;;;;8.96;44.99;99974.59;4937374;29;20035;-72
2024/03/24 11:00:49;;;;;;;6.43;2.70;;;;;;;8.98;45.25;99974.47;4920039;29;20601;-72
2024/03/24 11:03:16;;;;;;;4.72;2.28;;;;;;;8.99;45.01;99982.50;4919755;29;20586;-72
2024/03/24 11:05:45;;;;;;;5.35;2.40;;;;;;;9.00;44.86;99984.19;4933343;29;20043;-72
2024/03/24 11:08:13;;;;;;;7.47;2.42;;;;;;;9.02;44.99;99984.06;4930285;29;20035;-73
2024/03/24 11:10:42;;;;;;;5.45;2.72;;;;;;;9.02;45.29;100003.16;4936680;28;20120;-73
2024/03/24 11:13:11;;;;;;;5.57;2.58;;;;;;;8.99;45.41;99990.69;4924582;29;20525;-73
2024/03/24 11:15:41;;;;;;;5.72;2.33;;;;;;;8.98;44.96;100005.34;4920861;29;20043;-74
2024/03/24 11:18:17;;;;;;;5.43;2.60;;;;;;;8.98;45.43;99994.44;4919348;28;20051;-73
2024/03/24 11:20:44;;;;;;;4.18;2.28;;;;;;;8.92;45.12;99996.84;4946824;28;20047;-73
2024/03/24 11:23:19;;;;;;;4.75;2.08;;;;;;;8.92;44.60;99994.13;4925583;29;20530;-73
2024/03/24 11:25:49;;;;;;;4.88;2.10;;;;;;;8.88;44.97;99992.69;4938289;29;20035;-73
2024/03/24 11:28:40;;;;;;;5.25;2.22;;;;;;;8.82;44.92;99985.09;4920014;29;20689;-73
2024/03/24 11:31:32;;;;;;;6.18;2.17;;;;;;;8.74;45.05;99990.41;4934298;29;20063;-73
2024/03/24 11:34:00;;;;;;;4.78;2.42;;;;;;;8.71;45.02;99991.56;4936696;28;20145;-73
2024/03/24 11:36:27;;;;;;;4.57;2.20;;;;;;;8.69;45.21;99982.66;4935922;29;20272;-73
2024/03/24 11:38:54;;;;;;;4.47;2.05;;;;;;;8.66;45.13;99981.09;4936476;28;20392;-72